createdAt,value
2022-12-16T07:26:41.925Z,-3.90
2022-12-16T07:29:37.230Z,-4.30
2022-12-16T07:32:24.822Z,-4.30
2022-12-16T07:35:12.642Z,-4.30
2022-12-16T07:37:58.580Z,-4.00
2022-12-16T07:40:45.639Z,-4.20
2022-12-16T07:50:06.861Z,-3.80
2022-12-16T09:21:43.721Z,-0.60
2022-12-16T09:36:38.731Z,-0.20
2022-12-16T10:32:55.147Z,1.10
2022-12-16T11:03:05.590Z,1.80
2022-12-16T11:49:38.099Z,2.40
2022-12-16T11:52:38.140Z,2.40
2022-12-16T11:59:05.387Z,2.40
2022-12-16T12:01:55.646Z,2.40
2022-12-16T12:04:43.858Z,2.30
2022-12-16T12:07:48.044Z,2.30
2022-12-16T12:11:04.960Z,2.30
2022-12-16T12:14:19.029Z,1.90
2022-12-16T12:17:25.042Z,2.20
2022-12-16T12:20:40.863Z,2.20
2022-12-16T12:23:33.878Z,2.10
2022-12-16T12:26:28.424Z,2.10
2022-12-16T12:30:06.897Z,2.40
2022-12-16T12:33:33.553Z,2.00
2022-12-16T12:36:27.862Z,2.30
2022-12-16T12:39:43.380Z,2.00
2022-12-16T12:42:51.659Z,2.30
2022-12-16T12:45:49.665Z,2.30
2022-12-16T12:52:40.845Z,2.30
2022-12-16T13:01:24.876Z,2.20
2022-12-16T13:04:34.555Z,2.20
2022-12-16T13:07:22.417Z,2.20
2022-12-16T13:13:54.301Z,2.50
2022-12-16T13:17:23.510Z,2.10
2022-12-16T13:20:17.162Z,2.40
2022-12-16T13:23:07.538Z,2.10
2022-12-16T13:25:59.842Z,2.40
2022-12-16T13:35:43.960Z,2.40
2022-12-16T13:38:44.325Z,2.40
2022-12-16T13:42:08.440Z,2.30
2022-12-16T13:45:07.289Z,2.30
2022-12-16T13:48:14.133Z,2.30
2022-12-16T13:51:04.402Z,2.20
2022-12-16T13:53:53.637Z,2.20
2022-12-16T13:56:54.156Z,2.20
2022-12-16T13:59:46.872Z,1.90
2022-12-16T14:02:39.461Z,2.10
2022-12-16T14:05:44.236Z,2.10
2022-12-16T14:08:39.130Z,2.10
2022-12-16T14:11:37.176Z,2.10
2022-12-16T14:14:39.810Z,2.10
2022-12-16T16:22:26.275Z,1.60
2022-12-16T16:25:20.565Z,1.60
2022-12-16T17:18:55.165Z,1.70
2022-12-16T18:07:14.782Z,1.80
2022-12-16T18:10:05.048Z,1.80
2022-12-16T18:12:52.362Z,1.60
2022-12-16T18:15:40.155Z,1.80
2022-12-16T18:18:27.733Z,1.80
2022-12-16T18:21:17.236Z,1.80
2022-12-16T18:24:04.192Z,1.80
2022-12-16T18:26:54.925Z,1.70
2022-12-16T18:29:45.602Z,1.90
2022-12-16T18:35:39.402Z,1.70
2022-12-16T18:41:11.398Z,1.70
2022-12-16T18:44:06.530Z,1.70
2022-12-16T18:50:03.928Z,1.50
2022-12-16T18:55:57.677Z,1.50
2022-12-16T19:10:13.118Z,1.40
2022-12-16T22:01:32.226Z,0.90
2022-12-16T22:07:10.794Z,0.80
2022-12-16T22:12:47.620Z,0.80
2022-12-16T22:15:42.350Z,0.40
2022-12-16T22:18:35.287Z,0.70
2022-12-16T22:32:56.627Z,0.60
2022-12-16T22:35:46.226Z,0.40
2022-12-16T22:38:38.537Z,0.70
2022-12-16T22:44:23.172Z,0.70
2022-12-16T22:47:13.504Z,0.50
2022-12-16T23:01:32.295Z,1.00
2022-12-16T23:09:55.078Z,1.00
2022-12-16T23:12:46.490Z,1.00
2022-12-16T23:15:35.754Z,1.00
2022-12-16T23:21:23.784Z,1.00
2022-12-16T23:24:17.362Z,1.00
2022-12-16T23:27:04.927Z,0.90
2022-12-16T23:29:57.252Z,0.90
2022-12-16T23:32:45.267Z,0.90
2022-12-16T23:35:36.165Z,1.00
2022-12-16T23:38:28.761Z,1.00
2022-12-16T23:41:20.304Z,1.00
2022-12-16T23:44:09.570Z,1.00
2022-12-16T23:47:00.678Z,0.80
2022-12-16T23:49:47.936Z,1.00
2022-12-16T23:52:36.690Z,1.00
2022-12-16T23:55:24.903Z,1.00
2022-12-16T23:58:21.431Z,1.10
